MDT,Max TemperatureF,Mean TemperatureF,Min TemperatureF,Max Dew PointF,MeanDew PointF,Min DewpointF,Max Humidity, Mean Humidity, Min Humidity, Max Sea Level PressureIn, Mean Sea Level PressureIn, Min Sea Level PressureIn, Max VisibilityMiles, Mean VisibilityMiles, Min VisibilityMiles, Max Wind SpeedMPH, Mean Wind SpeedMPH, Max Gust SpeedMPH,PrecipitationIn, CloudCover, Events, WindDirDegrees
2014-4-1,44,37,30,19,9,0,64,30,18,29.93,29.84,29.75,10,10,7,32,11,45,0.00,5,,191
2014-4-2,37,30,24,27,18,3,100,65,24,29.80,29.76,29.73,10,7,0,23,12,37,0.00,7,Snow,211
2014-4-3,32,26,21,23,19,14,100,79,55,30.12,29.90,29.73,10,6,0,14,8,24,0.03,7,Snow,263
2014-4-4,37,27,17,19,13,7,80,54,28,30.12,30.05,29.99,10,10,10,12,5,18,0.00,4,,129
2014-4-5,41,34,28,28,17,7,93,54,26,29.99,29.92,29.87,10,10,0,17,6,26,0.00,6,Snow,142
2014-4-6,35,30,24,28,23,14,100,79,44,30.09,30.01,29.97,10,8,0,18,2,23,0.00,6,Snow,258
2014-4-7,39,32,26,27,20,16,100,60,39,30.38,30.26,30.10,10,9,2,16,7,26,0.01,5,Snow,293
2014-4-8,51,40,28,25,20,14,74,51,22,30.43,30.39,30.37,10,10,10,9,5,20,0.00,0,,143
2014-4-9,55,44,32,23,16,7,60,35,15,30.41,30.32,30.24,10,10,10,16,7,23,0.00,0,,155
2014-4-10,57,46,35,19,14,9,42,28,14,30.27,30.24,30.20,10,10,10,21,7,29,0.00,0,,165
2014-4-11,60,46,33,19,13,3,52,29,14,30.28,30.21,30.12,10,10,10,13,6,21,0.00,0,,171
2014-4-12,42,42,42,10,10,10,27,27,27,30.12,30.12,30.12,10,10,10,0,0,,0.00,2,,-1
2014-4-13,,,,,,,,,,,,,,,,,,,,,,
2014-4-14,33,24,15,18,12,5,86,54,30,30.29,30.24,30.17,10,10,7,13,4,20,0.00,0,Snow,253
2014-4-15,48,34,21,16,10,1,80,41,16,30.28,30.14,30.00,10,10,10,12,5,21,0.00,1,,144
2014-4-16,46,39,32,28,17,5,81,43,21,30.08,30.00,29.95,10,10,10,16,3,25,0.00,7,,255
2014-4-17,53,40,26,27,20,12,86,48,24,30.25,30.17,30.08,10,10,10,14,5,20,0.00,0,,173
2014-4-18,59,48,37,32,22,16,61,38,19,30.26,30.21,30.13,10,10,10,15,7,26,0.00,4,,161
2014-4-19,53,45,37,37,34,30,100,69,44,30.24,30.20,30.16,10,10,7,10,3,17,0.00,7,Rain,149
2014-4-20,55,45,35,36,32,21,87,66,28,30.34,30.26,30.21,10,10,7,17,3,22,0.00,4,Rain,103
2014-4-21,60,48,35,30,24,12,75,47,16,30.39,30.35,30.30,10,10,10,14,5,21,0.00,1,,174
2014-4-22,57,50,42,37,27,18,71,42,24,30.33,30.13,29.92,10,10,7,23,9,38,0.00,4,Thunderstorm,141
2014-4-23,51,42,32,27,18,9,57,39,24,30.09,29.96,29.90,10,10,10,22,13,39,0.00,4,,248
2014-4-24,53,38,24,12,6,-11,55,29,10,30.18,30.14,30.10,10,10,10,14,3,23,0.00,0,,238
2014-4-25,57,46,35,18,9,3,35,22,12,30.14,30.03,29.90,10,10,10,16,7,28,0.00,1,,141
2014-4-26,48,37,26,34,26,18,100,71,30,29.90,29.71,29.61,10,6,0,23,9,37,0.00,7,Snow,155
2014-4-27,32,29,26,27,24,19,100,86,64,29.80,29.72,29.66,10,4,0,23,7,30,0.00,8,Snow,273
2014-4-28,33,28,24,25,15,9,93,58,38,30.15,30.00,29.89,10,8,1,26,11,34,0.02,8,Snow,293
2014-4-29,33,27,21,21,14,9,80,57,41,30.31,30.23,30.16,10,9,1,13,6,22,0.00,8,Snow,314
2014-4-30,37,30,23,21,17,12,74,57,44,30.34,30.29,30.22,10,10,10,10,4,16,0.00,5,,351